sensor_id;sensor_type;location;lat;lon;timestamp;P1;durP1;ratioP1;P2;durP2;ratioP2
67130;SDS011;54051;53.464;49.532;2023-01-01T00:01:07;15.48;;;6.78;;
67130;SDS011;54051;53.464;49.532;2023-01-01T00:03:34;16.00;;;7.35;;
67130;SDS011;54051;53.464;49.532;2023-01-01T00:06:04;16.65;;;7.18;;
67130;SDS011;54051;53.464;49.532;2023-01-01T00:08:35;17.25;;;7.60;;
67130;SDS011;54051;53.464;49.532;2023-01-01T00:11:03;17.30;;;7.30;;
67130;SDS011;54051;53.464;49.532;2023-01-01T00:13:30;18.25;;;7.50;;
67130;SDS011;54051;53.464;49.532;2023-01-01T00:16:02;16.60;;;7.63;;
67130;SDS011;54051;53.464;49.532;2023-01-01T00:18:29;16.38;;;7.20;;
67130;SDS011;54051;53.464;49.532;2023-01-01T00:21:11;15.45;;;7.15;;
67130;SDS011;54051;53.464;49.532;2023-01-01T00:23:38;19.45;;;7.82;;
67130;SDS011;54051;53.464;49.532;2023-01-01T00:26:10;16.02;;;6.97;;
67130;SDS011;54051;53.464;49.532;2023-01-01T00:28:44;17.20;;;8.25;;
67130;SDS011;54051;53.464;49.532;2023-01-01T00:31:14;15.45;;;7.00;;
67130;SDS011;54051;53.464;49.532;2023-01-01T00:33:48;15.32;;;6.90;;
67130;SDS011;54051;53.464;49.532;2023-01-01T00:36:23;15.55;;;7.47;;
67130;SDS011;54051;53.464;49.532;2023-01-01T00:38:49;13.82;;;6.55;;
67130;SDS011;54051;53.464;49.532;2023-01-01T00:41:19;15.15;;;6.30;;
67130;SDS011;54051;53.464;49.532;2023-01-01T00:43:45;12.85;;;6.07;;
67130;SDS011;54051;53.464;49.532;2023-01-01T00:46:12;12.60;;;5.60;;
67130;SDS011;54051;53.464;49.532;2023-01-01T00:48:42;14.93;;;6.40;;
67130;SDS011;54051;53.464;49.532;2023-01-01T00:51:18;14.13;;;6.78;;
67130;SDS011;54051;53.464;49.532;2023-01-01T00:53:44;14.43;;;6.32;;
67130;SDS011;54051;53.464;49.532;2023-01-01T00:56:10;14.85;;;6.70;;
67130;SDS011;54051;53.464;49.532;2023-01-01T00:58:37;15.23;;;6.80;;
67130;SDS011;54051;53.464;49.532;2023-01-01T01:01:03;14.60;;;6.68;;
67130;SDS011;54051;53.464;49.532;2023-01-01T01:03:30;14.60;;;6.38;;
67130;SDS011;54051;53.464;49.532;2023-01-01T01:06:07;54.53;;;19.55;;
67130;SDS011;54051;53.464;49.532;2023-01-01T01:08:36;14.68;;;6.85;;
67130;SDS011;54051;53.464;49.532;2023-01-01T01:13:31;12.70;;;5.68;;
67130;SDS011;54051;53.464;49.532;2023-01-01T01:15:57;11.70;;;5.63;;
67130;SDS011;54051;53.464;49.532;2023-01-01T01:18:33;13.95;;;6.35;;
67130;SDS011;54051;53.464;49.532;2023-01-01T01:20:59;12.60;;;5.85;;
67130;SDS011;54051;53.464;49.532;2023-01-01T01:23:25;12.45;;;6.18;;
67130;SDS011;54051;53.464;49.532;2023-01-01T01:25:51;13.65;;;6.20;;
67130;SDS011;54051;53.464;49.532;2023-01-01T01:28:19;12.70;;;5.88;;
67130;SDS011;54051;53.464;49.532;2023-01-01T01:30:45;13.40;;;6.32;;
67130;SDS011;54051;53.464;49.532;2023-01-01T01:33:11;13.10;;;6.55;;
67130;SDS011;54051;53.464;49.532;2023-01-01T01:35:37;13.98;;;6.60;;
67130;SDS011;54051;53.464;49.532;2023-01-01T01:38:07;13.20;;;6.40;;
67130;SDS011;54051;53.464;49.532;2023-01-01T01:40:44;15.13;;;6.75;;
67130;SDS011;54051;53.464;49.532;2023-01-01T01:43:16;13.15;;;6.20;;
67130;SDS011;54051;53.464;49.532;2023-01-01T01:48:14;13.40;;;6.40;;
67130;SDS011;54051;53.464;49.532;2023-01-01T01:50:41;14.52;;;6.38;;
67130;SDS011;54051;53.464;49.532;2023-01-01T01:53:26;15.50;;;7.38;;
67130;SDS011;54051;53.464;49.532;2023-01-01T01:55:57;13.75;;;6.40;;
67130;SDS011;54051;53.464;49.532;2023-01-01T01:58:26;16.65;;;7.45;;
67130;SDS011;54051;53.464;49.532;2023-01-01T02:00:55;16.02;;;7.05;;
67130;SDS011;54051;53.464;49.532;2023-01-01T02:03:29;15.88;;;6.88;;
67130;SDS011;54051;53.464;49.532;2023-01-01T02:06:17;16.73;;;7.55;;
67130;SDS011;54051;53.464;49.532;2023-01-01T02:08:44;17.88;;;7.88;;
67130;SDS011;54051;53.464;49.532;2023-01-01T02:11:11;16.98;;;7.43;;
67130;SDS011;54051;53.464;49.532;2023-01-01T02:13:39;15.77;;;7.20;;
67130;SDS011;54051;53.464;49.532;2023-01-01T02:16:26;16.38;;;7.72;;
67130;SDS011;54051;53.464;49.532;2023-01-01T02:22:14;17.83;;;7.68;;
67130;SDS011;54051;53.464;49.532;2023-01-01T02:25:03;18.08;;;7.50;;
67130;SDS011;54051;53.464;49.532;2023-01-01T02:30:43;22.92;;;9.00;;
67130;SDS011;54051;53.464;49.532;2023-01-01T02:33:15;29.08;;;9.88;;
67130;SDS011;54051;53.464;49.532;2023-01-01T02:35:54;25.05;;;9.13;;
67130;SDS011;54051;53.464;49.532;2023-01-01T02:38:34;23.98;;;9.20;;
67130;SDS011;54051;53.464;49.532;2023-01-01T02:41:05;29.40;;;11.38;;
67130;SDS011;54051;53.464;49.532;2023-01-01T02:43:35;24.65;;;9.77;;
67130;SDS011;54051;53.464;49.532;2023-01-01T02:46:05;25.92;;;9.75;;
67130;SDS011;54051;53.464;49.532;2023-01-01T02:48:37;27.35;;;9.55;;
67130;SDS011;54051;53.464;49.532;2023-01-01T02:54:31;28.30;;;9.98;;
67130;SDS011;54051;53.464;49.532;2023-01-01T03:00:18;22.83;;;8.80;;
67130;SDS011;54051;53.464;49.532;2023-01-01T03:05:41;23.95;;;9.05;;
67130;SDS011;54051;53.464;49.532;2023-01-01T03:09:00;24.20;;;8.95;;
67130;SDS011;54051;53.464;49.532;2023-01-01T03:11:50;24.80;;;9.07;;
67130;SDS011;54051;53.464;49.532;2023-01-01T03:14:44;26.23;;;9.55;;
67130;SDS011;54051;53.464;49.532;2023-01-01T03:20:21;22.95;;;8.77;;
67130;SDS011;54051;53.464;49.532;2023-01-01T03:22:50;24.45;;;8.35;;
67130;SDS011;54051;53.464;49.532;2023-01-01T03:25:22;22.23;;;8.23;;
67130;SDS011;54051;53.464;49.532;2023-01-01T03:27:53;20.13;;;7.78;;
67130;SDS011;54051;53.464;49.532;2023-01-01T03:30:27;18.80;;;7.38;;
67130;SDS011;54051;53.464;49.532;2023-01-01T03:33:00;16.23;;;7.40;;
67130;SDS011;54051;53.464;49.532;2023-01-01T03:35:37;15.85;;;7.50;;
67130;SDS011;54051;53.464;49.532;2023-01-01T03:38:10;19.85;;;6.82;;
67130;SDS011;54051;53.464;49.532;2023-01-01T03:40:47;19.75;;;6.97;;
67130;SDS011;54051;53.464;49.532;2023-01-01T03:46:14;20.98;;;7.35;;
67130;SDS011;54051;53.464;49.532;2023-01-01T03:48:44;16.02;;;6.93;;
67130;SDS011;54051;53.464;49.532;2023-01-01T03:54:42;20.05;;;7.75;;
67130;SDS011;54051;53.464;49.532;2023-01-01T04:02:39;17.40;;;6.97;;
67130;SDS011;54051;53.464;49.532;2023-01-01T04:05:11;16.67;;;6.70;;
67130;SDS011;54051;53.464;49.532;2023-01-01T04:07:38;19.88;;;6.95;;
67130;SDS011;54051;53.464;49.532;2023-01-01T04:10:06;16.77;;;6.53;;
67130;SDS011;54051;53.464;49.532;2023-01-01T04:12:50;16.77;;;6.43;;
67130;SDS011;54051;53.464;49.532;2023-01-01T04:15:19;17.45;;;6.93;;
67130;SDS011;54051;53.464;49.532;2023-01-01T04:17:48;17.48;;;6.70;;
67130;SDS011;54051;53.464;49.532;2023-01-01T04:20:14;16.33;;;6.70;;
67130;SDS011;54051;53.464;49.532;2023-01-01T04:22:51;19.13;;;7.25;;
67130;SDS011;54051;53.464;49.532;2023-01-01T04:25:20;16.60;;;6.88;;
67130;SDS011;54051;53.464;49.532;2023-01-01T04:27:56;18.35;;;6.32;;
67130;SDS011;54051;53.464;49.532;2023-01-01T04:30:22;18.92;;;6.35;;
67130;SDS011;54051;53.464;49.532;2023-01-01T04:32:49;18.75;;;6.93;;
67130;SDS011;54051;53.464;49.532;2023-01-01T04:35:15;19.40;;;7.03;;
67130;SDS011;54051;53.464;49.532;2023-01-01T04:37:42;17.67;;;6.93;;
67130;SDS011;54051;53.464;49.532;2023-01-01T04:40:12;18.75;;;7.28;;
67130;SDS011;54051;53.464;49.532;2023-01-01T04:42:39;18.08;;;6.80;;
67130;SDS011;54051;53.464;49.532;2023-01-01T04:45:08;19.48;;;6.85;;
67130;SDS011;54051;53.464;49.532;2023-01-01T04:47:36;20.77;;;7.18;;
67130;SDS011;54051;53.464;49.532;2023-01-01T04:50:07;18.27;;;6.93;;
67130;SDS011;54051;53.464;49.532;2023-01-01T04:52:34;21.73;;;7.88;;
67130;SDS011;54051;53.464;49.532;2023-01-01T04:55:00;20.23;;;6.90;;
67130;SDS011;54051;53.464;49.532;2023-01-01T04:57:30;20.65;;;7.20;;
67130;SDS011;54051;53.464;49.532;2023-01-01T04:59:56;18.67;;;7.32;;
67130;SDS011;54051;53.464;49.532;2023-01-01T05:02:33;19.17;;;7.73;;
67130;SDS011;54051;53.464;49.532;2023-01-01T05:04:59;17.13;;;6.80;;
67130;SDS011;54051;53.464;49.532;2023-01-01T05:07:25;18.08;;;6.85;;
67130;SDS011;54051;53.464;49.532;2023-01-01T05:09:51;20.02;;;6.75;;
67130;SDS011;54051;53.464;49.532;2023-01-01T05:12:17;17.85;;;6.95;;
67130;SDS011;54051;53.464;49.532;2023-01-01T05:14:43;17.42;;;6.60;;
67130;SDS011;54051;53.464;49.532;2023-01-01T05:17:19;15.95;;;5.95;;
67130;SDS011;54051;53.464;49.532;2023-01-01T05:19:45;16.85;;;6.30;;
67130;SDS011;54051;53.464;49.532;2023-01-01T05:22:21;14.82;;;6.07;;
67130;SDS011;54051;53.464;49.532;2023-01-01T05:24:47;17.45;;;6.30;;
67130;SDS011;54051;53.464;49.532;2023-01-01T05:27:23;15.57;;;6.50;;
67130;SDS011;54051;53.464;49.532;2023-01-01T05:29:49;17.77;;;6.70;;
67130;SDS011;54051;53.464;49.532;2023-01-01T05:32:26;17.98;;;6.28;;
67130;SDS011;54051;53.464;49.532;2023-01-01T05:34:56;17.67;;;7.25;;
67130;SDS011;54051;53.464;49.532;2023-01-01T05:37:24;16.05;;;6.68;;
67130;SDS011;54051;53.464;49.532;2023-01-01T05:40:00;16.45;;;6.65;;
67130;SDS011;54051;53.464;49.532;2023-01-01T05:42:26;16.45;;;6.45;;
67130;SDS011;54051;53.464;49.532;2023-01-01T05:44:52;17.17;;;6.70;;
67130;SDS011;54051;53.464;49.532;2023-01-01T05:47:18;16.52;;;6.45;;
67130;SDS011;54051;53.464;49.532;2023-01-01T05:49:45;16.77;;;6.65;;
67130;SDS011;54051;53.464;49.532;2023-01-01T05:52:21;16.05;;;6.82;;
67130;SDS011;54051;53.464;49.532;2023-01-01T05:54:59;17.23;;;6.78;;
67130;SDS011;54051;53.464;49.532;2023-01-01T05:57:30;16.88;;;6.93;;
67130;SDS011;54051;53.464;49.532;2023-01-01T05:59:57;19.75;;;6.97;;
67130;SDS011;54051;53.464;49.532;2023-01-01T06:02:25;17.65;;;6.10;;
67130;SDS011;54051;53.464;49.532;2023-01-01T06:04:55;20.33;;;6.82;;
67130;SDS011;54051;53.464;49.532;2023-01-01T06:07:25;19.92;;;6.50;;
67130;SDS011;54051;53.464;49.532;2023-01-01T06:09:51;17.85;;;6.72;;
67130;SDS011;54051;53.464;49.532;2023-01-01T06:12:20;22.00;;;7.20;;
67130;SDS011;54051;53.464;49.532;2023-01-01T06:14:46;21.10;;;7.10;;
67130;SDS011;54051;53.464;49.532;2023-01-01T06:17:12;20.00;;;6.97;;
67130;SDS011;54051;53.464;49.532;2023-01-01T06:19:39;19.95;;;6.65;;
67130;SDS011;54051;53.464;49.532;2023-01-01T06:22:05;20.30;;;6.93;;
67130;SDS011;54051;53.464;49.532;2023-01-01T06:24:38;18.23;;;6.03;;
67130;SDS011;54051;53.464;49.532;2023-01-01T06:27:08;20.25;;;6.88;;
67130;SDS011;54051;53.464;49.532;2023-01-01T06:29:34;20.23;;;7.05;;
67130;SDS011;54051;53.464;49.532;2023-01-01T06:32:02;20.17;;;7.05;;
67130;SDS011;54051;53.464;49.532;2023-01-01T06:34:29;23.45;;;7.53;;
67130;SDS011;54051;53.464;49.532;2023-01-01T06:36:55;19.63;;;7.03;;
67130;SDS011;54051;53.464;49.532;2023-01-01T06:39:22;21.98;;;7.18;;
67130;SDS011;54051;53.464;49.532;2023-01-01T06:41:48;23.17;;;7.65;;
67130;SDS011;54051;53.464;49.532;2023-01-01T06:44:13;23.83;;;7.18;;
67130;SDS011;54051;53.464;49.532;2023-01-01T06:46:44;24.63;;;7.47;;
67130;SDS011;54051;53.464;49.532;2023-01-01T06:49:10;21.33;;;7.70;;
67130;SDS011;54051;53.464;49.532;2023-01-01T06:51:47;24.05;;;7.68;;
67130;SDS011;54051;53.464;49.532;2023-01-01T06:54:13;22.75;;;7.30;;
67130;SDS011;54051;53.464;49.532;2023-01-01T06:56:39;24.25;;;7.85;;
67130;SDS011;54051;53.464;49.532;2023-01-01T06:59:09;21.52;;;7.80;;
67130;SDS011;54051;53.464;49.532;2023-01-01T07:01:35;27.02;;;8.57;;
67130;SDS011;54051;53.464;49.532;2023-01-01T07:04:05;19.10;;;6.97;;
67130;SDS011;54051;53.464;49.532;2023-01-01T07:06:35;22.25;;;7.68;;
67130;SDS011;54051;53.464;49.532;2023-01-01T07:09:02;22.13;;;7.75;;
67130;SDS011;54051;53.464;49.532;2023-01-01T07:11:32;21.00;;;6.93;;
67130;SDS011;54051;53.464;49.532;2023-01-01T07:13:59;25.45;;;8.30;;
67130;SDS011;54051;53.464;49.532;2023-01-01T07:16:44;21.90;;;8.00;;
67130;SDS011;54051;53.464;49.532;2023-01-01T07:19:14;25.77;;;7.97;;
67130;SDS011;54051;53.464;49.532;2023-01-01T07:21:53;22.25;;;7.53;;
67130;SDS011;54051;53.464;49.532;2023-01-01T07:24:20;22.52;;;7.85;;
67130;SDS011;54051;53.464;49.532;2023-01-01T07:26:46;22.50;;;7.13;;
67130;SDS011;54051;53.464;49.532;2023-01-01T07:31:49;23.17;;;8.50;;
67130;SDS011;54051;53.464;49.532;2023-01-01T07:34:25;23.08;;;7.85;;
67130;SDS011;54051;53.464;49.532;2023-01-01T07:36:51;22.55;;;7.75;;
67130;SDS011;54051;53.464;49.532;2023-01-01T07:39:17;25.65;;;8.07;;
67130;SDS011;54051;53.464;49.532;2023-01-01T07:41:43;25.90;;;8.95;;
67130;SDS011;54051;53.464;49.532;2023-01-01T07:44:10;24.15;;;8.23;;
67130;SDS011;54051;53.464;49.532;2023-01-01T07:46:37;22.27;;;8.63;;
67130;SDS011;54051;53.464;49.532;2023-01-01T07:49:03;24.85;;;8.10;;
67130;SDS011;54051;53.464;49.532;2023-01-01T07:51:29;23.92;;;8.88;;
67130;SDS011;54051;53.464;49.532;2023-01-01T07:53:55;23.67;;;8.27;;
67130;SDS011;54051;53.464;49.532;2023-01-01T07:56:21;26.05;;;8.63;;
67130;SDS011;54051;53.464;49.532;2023-01-01T07:58:47;25.25;;;8.90;;
67130;SDS011;54051;53.464;49.532;2023-01-01T08:01:14;27.55;;;8.82;;
67130;SDS011;54051;53.464;49.532;2023-01-01T08:03:40;26.27;;;9.25;;
67130;SDS011;54051;53.464;49.532;2023-01-01T08:06:10;25.50;;;9.30;;
67130;SDS011;54051;53.464;49.532;2023-01-01T08:08:40;27.45;;;9.48;;
67130;SDS011;54051;53.464;49.532;2023-01-01T08:11:06;25.17;;;8.95;;
67130;SDS011;54051;53.464;49.532;2023-01-01T08:13:35;27.85;;;9.90;;
67130;SDS011;54051;53.464;49.532;2023-01-01T08:16:11;23.40;;;9.38;;
67130;SDS011;54051;53.464;49.532;2023-01-01T08:18:37;31.00;;;11.15;;
67130;SDS011;54051;53.464;49.532;2023-01-01T08:21:04;28.92;;;10.48;;
67130;SDS011;54051;53.464;49.532;2023-01-01T08:23:30;26.10;;;9.98;;
67130;SDS011;54051;53.464;49.532;2023-01-01T08:26:02;27.52;;;10.25;;
67130;SDS011;54051;53.464;49.532;2023-01-01T08:28:28;32.80;;;11.02;;
67130;SDS011;54051;53.464;49.532;2023-01-01T08:30:55;25.55;;;9.85;;
67130;SDS011;54051;53.464;49.532;2023-01-01T08:33:21;31.85;;;11.15;;
67130;SDS011;54051;53.464;49.532;2023-01-01T08:35:49;32.78;;;11.30;;
67130;SDS011;54051;53.464;49.532;2023-01-01T08:38:15;28.05;;;10.48;;
67130;SDS011;54051;53.464;49.532;2023-01-01T08:40:41;27.67;;;10.35;;
67130;SDS011;54051;53.464;49.532;2023-01-01T08:43:17;33.33;;;11.95;;
67130;SDS011;54051;53.464;49.532;2023-01-01T08:45:44;24.02;;;9.43;;
67130;SDS011;54051;53.464;49.532;2023-01-01T08:48:14;27.95;;;9.95;;
67130;SDS011;54051;53.464;49.532;2023-01-01T08:50:43;74.43;;;31.25;;
67130;SDS011;54051;53.464;49.532;2023-01-01T08:53:16;28.52;;;11.95;;
67130;SDS011;54051;53.464;49.532;2023-01-01T08:55:44;27.92;;;11.25;;
67130;SDS011;54051;53.464;49.532;2023-01-01T08:58:10;25.65;;;9.40;;
67130;SDS011;54051;53.464;49.532;2023-01-01T09:00:36;29.90;;;10.13;;
67130;SDS011;54051;53.464;49.532;2023-01-01T09:03:15;27.88;;;10.02;;
67130;SDS011;54051;53.464;49.532;2023-01-01T09:05:42;26.30;;;9.75;;
67130;SDS011;54051;53.464;49.532;2023-01-01T09:08:13;28.77;;;10.70;;
67130;SDS011;54051;53.464;49.532;2023-01-01T09:10:40;28.07;;;10.80;;
67130;SDS011;54051;53.464;49.532;2023-01-01T09:13:11;30.13;;;10.73;;
67130;SDS011;54051;53.464;49.532;2023-01-01T09:15:43;30.60;;;10.98;;
67130;SDS011;54051;53.464;49.532;2023-01-01T09:18:10;27.43;;;9.50;;
67130;SDS011;54051;53.464;49.532;2023-01-01T09:20:47;30.35;;;11.73;;
67130;SDS011;54051;53.464;49.532;2023-01-01T09:23:13;29.00;;;10.77;;
67130;SDS011;54051;53.464;49.532;2023-01-01T09:25:40;27.67;;;10.35;;
67130;SDS011;54051;53.464;49.532;2023-01-01T09:28:10;27.73;;;10.05;;
67130;SDS011;54051;53.464;49.532;2023-01-01T09:30:37;32.03;;;10.18;;
67130;SDS011;54051;53.464;49.532;2023-01-01T09:33:06;26.33;;;9.57;;
67130;SDS011;54051;53.464;49.532;2023-01-01T09:35:42;25.20;;;9.20;;
67130;SDS011;54051;53.464;49.532;2023-01-01T09:38:09;25.98;;;9.18;;
67130;SDS011;54051;53.464;49.532;2023-01-01T09:40:55;26.00;;;9.65;;
67130;SDS011;54051;53.464;49.532;2023-01-01T09:43:44;27.77;;;10.55;;
67130;SDS011;54051;53.464;49.532;2023-01-01T09:46:58;26.10;;;10.90;;
67130;SDS011;54051;53.464;49.532;2023-01-01T09:52:01;23.80;;;8.77;;
67130;SDS011;54051;53.464;49.532;2023-01-01T09:54:37;25.80;;;9.35;;
67130;SDS011;54051;53.464;49.532;2023-01-01T09:57:10;22.17;;;8.20;;
67130;SDS011;54051;53.464;49.532;2023-01-01T09:59:48;18.25;;;6.80;;
67130;SDS011;54051;53.464;49.532;2023-01-01T10:05:05;19.88;;;6.97;;
67130;SDS011;54051;53.464;49.532;2023-01-01T10:13:38;13.13;;;5.25;;
67130;SDS011;54051;53.464;49.532;2023-01-01T10:16:14;11.85;;;3.88;;
67130;SDS011;54051;53.464;49.532;2023-01-01T10:18:56;12.98;;;4.72;;
67130;SDS011;54051;53.464;49.532;2023-01-01T10:21:27;13.48;;;4.97;;
67130;SDS011;54051;53.464;49.532;2023-01-01T10:26:27;16.35;;;5.70;;
67130;SDS011;54051;53.464;49.532;2023-01-01T10:31:33;16.83;;;5.85;;
67130;SDS011;54051;53.464;49.532;2023-01-01T10:34:16;18.83;;;6.43;;
67130;SDS011;54051;53.464;49.532;2023-01-01T10:36:47;13.98;;;6.03;;
67130;SDS011;54051;53.464;49.532;2023-01-01T10:39:16;17.73;;;6.68;;
67130;SDS011;54051;53.464;49.532;2023-01-01T10:41:43;16.90;;;5.75;;
67130;SDS011;54051;53.464;49.532;2023-01-01T10:44:10;19.25;;;7.38;;
67130;SDS011;54051;53.464;49.532;2023-01-01T10:46:39;17.88;;;6.00;;
67130;SDS011;54051;53.464;49.532;2023-01-01T10:49:11;19.27;;;5.70;;
67130;SDS011;54051;53.464;49.532;2023-01-01T10:51:42;16.02;;;6.10;;
67130;SDS011;54051;53.464;49.532;2023-01-01T10:57:14;17.25;;;6.57;;
67130;SDS011;54051;53.464;49.532;2023-01-01T10:59:53;13.65;;;5.78;;
67130;SDS011;54051;53.464;49.532;2023-01-01T11:02:24;15.45;;;5.57;;
67130;SDS011;54051;53.464;49.532;2023-01-01T11:07:39;14.65;;;5.75;;
67130;SDS011;54051;53.464;49.532;2023-01-01T11:10:11;13.93;;;5.28;;
67130;SDS011;54051;53.464;49.532;2023-01-01T11:15:21;14.90;;;5.93;;
67130;SDS011;54051;53.464;49.532;2023-01-01T11:18:03;16.67;;;5.70;;
67130;SDS011;54051;53.464;49.532;2023-01-01T11:20:40;13.48;;;5.30;;
67130;SDS011;54051;53.464;49.532;2023-01-01T11:26:18;12.40;;;5.38;;
67130;SDS011;54051;53.464;49.532;2023-01-01T11:29:16;13.20;;;5.47;;
67130;SDS011;54051;53.464;49.532;2023-01-01T11:31:49;14.45;;;5.90;;
67130;SDS011;54051;53.464;49.532;2023-01-01T11:36:45;13.50;;;5.65;;
67130;SDS011;54051;53.464;49.532;2023-01-01T11:41:47;12.50;;;4.47;;
67130;SDS011;54051;53.464;49.532;2023-01-01T11:47:20;12.32;;;4.60;;
67130;SDS011;54051;53.464;49.532;2023-01-01T11:49:52;11.60;;;4.80;;
67130;SDS011;54051;53.464;49.532;2023-01-01T11:52:36;14.43;;;5.75;;
67130;SDS011;54051;53.464;49.532;2023-01-01T11:55:25;14.68;;;5.53;;
67130;SDS011;54051;53.464;49.532;2023-01-01T12:00:50;13.90;;;5.53;;
67130;SDS011;54051;53.464;49.532;2023-01-01T12:06:28;14.90;;;5.80;;
67130;SDS011;54051;53.464;49.532;2023-01-01T12:09:10;14.95;;;5.65;;
67130;SDS011;54051;53.464;49.532;2023-01-01T12:17:44;14.18;;;5.50;;
67130;SDS011;54051;53.464;49.532;2023-01-01T12:22:56;20.30;;;8.02;;
67130;SDS011;54051;53.464;49.532;2023-01-01T12:25:24;11.98;;;5.30;;
67130;SDS011;54051;53.464;49.532;2023-01-01T12:28:28;12.98;;;5.47;;
67130;SDS011;54051;53.464;49.532;2023-01-01T12:31:17;11.23;;;5.03;;
67130;SDS011;54051;53.464;49.532;2023-01-01T12:33:56;10.77;;;4.63;;
67130;SDS011;54051;53.464;49.532;2023-01-01T12:36:44;12.13;;;5.00;;
67130;SDS011;54051;53.464;49.532;2023-01-01T12:45:16;10.25;;;4.35;;
67130;SDS011;54051;53.464;49.532;2023-01-01T12:50:37;9.48;;;4.30;;
67130;SDS011;54051;53.464;49.532;2023-01-01T12:55:59;9.50;;;3.80;;
67130;SDS011;54051;53.464;49.532;2023-01-01T12:59:06;8.50;;;3.60;;
67130;SDS011;54051;53.464;49.532;2023-01-01T13:01:43;8.45;;;3.55;;
67130;SDS011;54051;53.464;49.532;2023-01-01T13:04:13;9.23;;;4.15;;
67130;SDS011;54051;53.464;49.532;2023-01-01T13:11:48;9.07;;;3.08;;
67130;SDS011;54051;53.464;49.532;2023-01-01T13:14:19;7.75;;;3.25;;
67130;SDS011;54051;53.464;49.532;2023-01-01T13:16:54;7.80;;;2.95;;
67130;SDS011;54051;53.464;49.532;2023-01-01T13:49:33;6.60;;;2.75;;
67130;SDS011;54051;53.464;49.532;2023-01-01T13:59:22;5.65;;;2.38;;
67130;SDS011;54051;53.464;49.532;2023-01-01T14:09:11;6.70;;;2.60;;
67130;SDS011;54051;53.464;49.532;2023-01-01T14:14:43;6.47;;;2.65;;
67130;SDS011;54051;53.464;49.532;2023-01-01T14:17:20;6.90;;;3.15;;
67130;SDS011;54051;53.464;49.532;2023-01-01T14:19:46;6.15;;;2.42;;
67130;SDS011;54051;53.464;49.532;2023-01-01T14:22:13;7.70;;;3.20;;
67130;SDS011;54051;53.464;49.532;2023-01-01T14:24:42;7.43;;;3.08;;
67130;SDS011;54051;53.464;49.532;2023-01-01T14:28:02;7.40;;;3.20;;
67130;SDS011;54051;53.464;49.532;2023-01-01T14:30:29;6.57;;;3.00;;
67130;SDS011;54051;53.464;49.532;2023-01-01T14:32:58;6.43;;;2.58;;
67130;SDS011;54051;53.464;49.532;2023-01-01T14:35:25;7.00;;;2.67;;
67130;SDS011;54051;53.464;49.532;2023-01-01T14:37:53;6.13;;;2.65;;
67130;SDS011;54051;53.464;49.532;2023-01-01T14:40:21;8.30;;;3.38;;
67130;SDS011;54051;53.464;49.532;2023-01-01T14:43:00;7.32;;;3.25;;
67130;SDS011;54051;53.464;49.532;2023-01-01T14:45:33;6.63;;;2.85;;
67130;SDS011;54051;53.464;49.532;2023-01-01T14:48:28;8.68;;;3.50;;
67130;SDS011;54051;53.464;49.532;2023-01-01T14:50:56;7.00;;;2.97;;
67130;SDS011;54051;53.464;49.532;2023-01-01T14:53:29;7.88;;;3.70;;
67130;SDS011;54051;53.464;49.532;2023-01-01T14:55:57;8.57;;;3.88;;
67130;SDS011;54051;53.464;49.532;2023-01-01T14:58:26;6.22;;;3.15;;
67130;SDS011;54051;53.464;49.532;2023-01-01T15:01:15;8.55;;;3.85;;
67130;SDS011;54051;53.464;49.532;2023-01-01T15:06:40;9.05;;;3.72;;
67130;SDS011;54051;53.464;49.532;2023-01-01T15:09:19;7.65;;;3.20;;
67130;SDS011;54051;53.464;49.532;2023-01-01T15:11:45;8.23;;;3.42;;
67130;SDS011;54051;53.464;49.532;2023-01-01T15:17:10;8.93;;;3.95;;
67130;SDS011;54051;53.464;49.532;2023-01-01T15:19:39;8.35;;;3.30;;
67130;SDS011;54051;53.464;49.532;2023-01-01T15:22:35;7.53;;;3.47;;
67130;SDS011;54051;53.464;49.532;2023-01-01T15:25:03;7.88;;;3.10;;
67130;SDS011;54051;53.464;49.532;2023-01-01T15:27:34;5.93;;;2.65;;
67130;SDS011;54051;53.464;49.532;2023-01-01T15:30:05;8.50;;;3.25;;
67130;SDS011;54051;53.464;49.532;2023-01-01T15:32:36;8.55;;;3.42;;
67130;SDS011;54051;53.464;49.532;2023-01-01T15:35:28;7.93;;;3.58;;
67130;SDS011;54051;53.464;49.532;2023-01-01T15:37:57;10.13;;;4.32;;
67130;SDS011;54051;53.464;49.532;2023-01-01T15:40:31;8.63;;;3.97;;
67130;SDS011;54051;53.464;49.532;2023-01-01T15:45:36;8.77;;;3.97;;
67130;SDS011;54051;53.464;49.532;2023-01-01T15:48:17;7.75;;;3.25;;
67130;SDS011;54051;53.464;49.532;2023-01-01T15:53:22;9.02;;;4.00;;
67130;SDS011;54051;53.464;49.532;2023-01-01T15:55:55;10.48;;;4.55;;
67130;SDS011;54051;53.464;49.532;2023-01-01T15:58:29;11.07;;;4.70;;
67130;SDS011;54051;53.464;49.532;2023-01-01T16:01:02;10.05;;;4.28;;
67130;SDS011;54051;53.464;49.532;2023-01-01T16:03:31;11.73;;;4.65;;
67130;SDS011;54051;53.464;49.532;2023-01-01T16:06:00;9.48;;;3.83;;
67130;SDS011;54051;53.464;49.532;2023-01-01T16:08:27;11.27;;;4.80;;
67130;SDS011;54051;53.464;49.532;2023-01-01T16:10:53;8.27;;;3.58;;
67130;SDS011;54051;53.464;49.532;2023-01-01T16:13:19;10.98;;;4.68;;
67130;SDS011;54051;53.464;49.532;2023-01-01T16:18:32;11.70;;;4.57;;
67130;SDS011;54051;53.464;49.532;2023-01-01T16:21:01;11.80;;;4.75;;
67130;SDS011;54051;53.464;49.532;2023-01-01T16:23:28;9.52;;;3.80;;
67130;SDS011;54051;53.464;49.532;2023-01-01T16:25:55;10.25;;;3.65;;
67130;SDS011;54051;53.464;49.532;2023-01-01T16:28:21;9.35;;;3.47;;
67130;SDS011;54051;53.464;49.532;2023-01-01T16:30:48;12.18;;;5.13;;
67130;SDS011;54051;53.464;49.532;2023-01-01T16:33:17;9.65;;;3.58;;
67130;SDS011;54051;53.464;49.532;2023-01-01T16:35:45;10.20;;;4.25;;
67130;SDS011;54051;53.464;49.532;2023-01-01T16:38:11;9.73;;;3.97;;
67130;SDS011;54051;53.464;49.532;2023-01-01T16:40:49;11.73;;;4.40;;
67130;SDS011;54051;53.464;49.532;2023-01-01T16:43:16;10.35;;;3.63;;
67130;SDS011;54051;53.464;49.532;2023-01-01T16:45:43;11.32;;;4.03;;
67130;SDS011;54051;53.464;49.532;2023-01-01T16:48:09;11.57;;;4.00;;
67130;SDS011;54051;53.464;49.532;2023-01-01T16:50:35;10.30;;;4.22;;
67130;SDS011;54051;53.464;49.532;2023-01-01T16:53:01;10.20;;;3.67;;
67130;SDS011;54051;53.464;49.532;2023-01-01T16:55:28;13.32;;;5.28;;
67130;SDS011;54051;53.464;49.532;2023-01-01T16:57:54;16.60;;;5.68;;
67130;SDS011;54051;53.464;49.532;2023-01-01T17:00:28;15.10;;;6.10;;
67130;SDS011;54051;53.464;49.532;2023-01-01T17:02:54;14.48;;;6.30;;
67130;SDS011;54051;53.464;49.532;2023-01-01T17:05:20;13.13;;;5.70;;
67130;SDS011;54051;53.464;49.532;2023-01-01T17:07:46;13.38;;;5.63;;
67130;SDS011;54051;53.464;49.532;2023-01-01T17:10:12;16.45;;;6.20;;
67130;SDS011;54051;53.464;49.532;2023-01-01T17:12:38;11.75;;;5.05;;
67130;SDS011;54051;53.464;49.532;2023-01-01T17:15:05;12.70;;;5.43;;
67130;SDS011;54051;53.464;49.532;2023-01-01T17:17:41;11.57;;;4.70;;
67130;SDS011;54051;53.464;49.532;2023-01-01T17:20:07;13.20;;;5.03;;
67130;SDS011;54051;53.464;49.532;2023-01-01T17:22:38;12.18;;;4.97;;
67130;SDS011;54051;53.464;49.532;2023-01-01T17:25:05;10.88;;;4.80;;
67130;SDS011;54051;53.464;49.532;2023-01-01T17:27:34;8.80;;;3.35;;
67130;SDS011;54051;53.464;49.532;2023-01-01T17:30:05;8.80;;;3.83;;
67130;SDS011;54051;53.464;49.532;2023-01-01T17:32:34;8.88;;;3.70;;
67130;SDS011;54051;53.464;49.532;2023-01-01T17:35:03;8.90;;;3.70;;